West Jefferson, Ohio
Current Conditions -  °F | °C
As of 2:50 PM on Thursday 18 Dec 2014 (Local Time) from KTZR Reporting Station
Overcast Overcast  
Wind Chill: -5°   Ceiling: 1600
Heat Index: -2°   Visibility: 10mi
Dew Point: -6°   Wind: 5mph
Humidity: 74%   Direction: 230°SW
Pressure: 30.21"   Gusts: NA
Location:  39.94°N, 83.27°W
Report Text: KTZR 181950Z 23004KT 10SM OVC016 M02/M06 A3021
Loading
Personal Weather Stations






























Interactive Weather Map New forecast layout! Learn more

10-Day Weather Forecast

Advertisements
Track Severe Weather on mobile